Time;durP1;ratioP1;P1;durP2;ratioP2;P2;SDS_P1;SDS_P2;PMS_P1;PMS_P2;Temp;Humidity;BMP_temperature;BMP_pressure;BME280_temperature;BME280_humidity;BME280_pressure;Samples;Min_cycle;Max_cycle;Signal;HPM_P1;HPM_P2
2021/05/23 00:00:56;;;;;;;2.10;0.30;;;;;;;10.45;65.53;100041.22;5076851;28;20048;-76
2021/05/23 00:03:21;;;;;;;0.88;0.25;;;;;;;10.42;65.17;100040.38;5061239;28;20101;-76
2021/05/23 00:05:47;;;;;;;1.48;0.30;;;;;;;10.39;65.75;100036.00;5062701;28;20033;-76
2021/05/23 00:08:15;;;;;;;0.43;0.10;;;;;;;10.42;65.61;100040.38;5062467;28;20032;-74
2021/05/23 00:10:46;;;;;;;0.57;0.13;;;;;;;10.38;65.22;100039.56;5060953;28;20506;-74
2021/05/23 00:13:14;;;;;;;0.55;0.30;;;;;;;10.35;64.83;100044.88;5063665;28;20035;-74
2021/05/23 00:15:51;;;;;;;1.17;0.22;;;;;;;10.27;64.76;100041.41;5061543;28;20079;-74
2021/05/23 00:18:17;;;;;;;0.55;0.38;;;;;;;10.21;65.27;100046.75;5060331;28;20037;-73
2021/05/23 00:20:43;;;;;;;1.92;0.20;;;;;;;10.09;65.85;100064.47;5066263;28;20063;-74
2021/05/23 00:23:10;;;;;;;2.67;0.30;;;;;;;10.03;65.99;100054.03;5060735;28;20118;-74
2021/05/23 00:25:36;;;;;;;1.15;0.22;;;;;;;9.92;66.39;100053.25;5062146;28;20162;-74
2021/05/23 00:28:01;;;;;;;1.88;0.30;;;;;;;9.84;67.29;100057.72;5062387;28;20502;-74
2021/05/23 00:30:27;;;;;;;5.30;0.50;;;;;;;9.79;66.84;100059.53;5060684;28;20029;-74
2021/05/23 00:32:53;;;;;;;1.27;0.40;;;;;;;9.76;67.17;100060.44;5063216;28;20452;-74
2021/05/23 00:35:18;;;;;;;1.02;0.30;;;;;;;9.72;66.90;100061.38;5060235;28;20052;-73
2021/05/23 00:37:44;;;;;;;0.80;0.22;;;;;;;9.72;67.76;100057.84;5062294;28;20032;-74
2021/05/23 00:40:09;;;;;;;1.33;0.32;;;;;;;9.62;67.50;100060.59;5060361;28;20124;-74
2021/05/23 00:42:35;;;;;;;0.95;0.13;;;;;;;9.58;68.17;100064.13;5061623;28;20037;-74
2021/05/23 00:45:01;;;;;;;0.80;0.30;;;;;;;9.50;68.61;100070.38;5060562;28;20037;-75
2021/05/23 00:47:27;;;;;;;0.65;0.28;;;;;;;9.44;68.28;100073.94;5062041;28;20043;-76
2021/05/23 00:49:52;;;;;;;1.45;0.35;;;;;;;9.37;68.62;100067.84;5063075;28;20107;-74
2021/05/23 00:52:18;;;;;;;0.77;0.10;;;;;;;9.34;68.30;100067.00;5076115;28;20423;-76
2021/05/23 00:54:43;;;;;;;2.17;0.30;;;;;;;9.29;68.87;100060.91;5060847;28;20124;-75
2021/05/23 00:57:09;;;;;;;0.65;0.28;;;;;;;9.20;68.35;100069.75;5061399;28;20040;-76
2021/05/23 00:59:34;;;;;;;2.05;0.43;;;;;;;9.15;69.11;100067.16;5061766;28;20036;-76
2021/05/23 01:02:00;;;;;;;1.67;0.20;;;;;;;9.06;69.12;100072.47;5059773;28;20073;-76
2021/05/23 01:04:25;;;;;;;2.58;0.30;;;;;;;8.97;69.33;100073.41;5063013;28;20048;-75
2021/05/23 01:06:51;;;;;;;0.65;0.20;;;;;;;8.92;69.52;100075.22;5059557;28;20060;-75
2021/05/23 01:09:17;;;;;;;1.30;0.10;;;;;;;8.84;70.09;100084.03;5077520;28;20475;-74
2021/05/23 01:11:42;;;;;;;1.13;0.20;;;;;;;8.78;70.63;100080.56;5060673;28;20067;-74
2021/05/23 01:14:18;;;;;;;1.25;0.30;;;;;;;8.73;71.34;100077.09;5060782;28;20028;-75
2021/05/23 01:16:55;;;;;;;1.65;0.38;;;;;;;8.76;71.36;100074.44;5062785;28;20120;-75
2021/05/23 01:19:32;;;;;;;2.25;0.30;;;;;;;8.76;71.25;100081.47;5077528;28;20047;-75
2021/05/23 01:22:11;;;;;;;1.10;0.20;;;;;;;8.73;71.90;100078.84;5062467;28;20416;-74
2021/05/23 01:24:42;;;;;;;0.63;0.15;;;;;;;8.76;71.20;100068.31;5062306;28;20052;-74
2021/05/23 01:27:12;;;;;;;2.25;0.38;;;;;;;8.73;71.57;100073.59;5062802;28;20041;-74
2021/05/23 01:29:39;;;;;;;0.80;0.28;;;;;;;8.74;70.88;100070.06;5060722;28;20067;-75
2021/05/23 01:32:05;;;;;;;1.02;0.20;;;;;;;8.72;71.40;100075.34;5059981;28;20029;-75
2021/05/23 01:34:30;;;;;;;0.70;0.30;;;;;;;8.72;70.78;100080.63;5062263;28;20116;-75
2021/05/23 01:36:59;;;;;;;1.40;0.35;;;;;;;8.69;71.82;100080.59;5061902;28;20540;-75
2021/05/23 01:39:25;;;;;;;0.68;0.30;;;;;;;8.67;71.81;100073.59;5059909;28;20064;-74
2021/05/23 01:41:52;;;;;;;1.55;0.30;;;;;;;8.70;71.85;100078.88;5060768;28;20541;-74
2021/05/23 01:44:18;;;;;;;0.98;0.30;;;;;;;8.72;72.19;100082.34;5061304;28;20062;-74
2021/05/23 01:46:44;;;;;;;1.52;0.25;;;;;;;8.70;71.32;100073.63;5059861;28;20457;-74
2021/05/23 01:49:10;;;;;;;0.80;0.30;;;;;;;8.68;71.83;100076.25;5063217;28;20028;-74
2021/05/23 01:51:35;;;;;;;2.20;0.32;;;;;;;8.67;71.87;100077.13;5063255;28;20519;-74
2021/05/23 01:54:01;;;;;;;2.75;0.40;;;;;;;8.72;71.42;100087.59;5081164;28;20522;-74
2021/05/23 01:56:27;;;;;;;1.45;0.30;;;;;;;8.69;71.93;100083.22;5080638;28;20040;-74
2021/05/23 01:58:52;;;;;;;0.93;0.20;;;;;;;8.73;71.61;100087.63;5064915;28;20048;-74
2021/05/23 02:01:19;;;;;;;1.05;0.30;;;;;;;8.74;72.00;100083.22;5063486;28;20037;-75
2021/05/23 02:03:44;;;;;;;2.55;0.38;;;;;;;8.76;71.50;100081.47;5066275;28;20033;-75
2021/05/23 02:06:10;;;;;;;1.17;0.20;;;;;;;8.73;71.31;100078.84;5063056;28;20036;-75
2021/05/23 02:08:36;;;;;;;1.75;0.28;;;;;;;8.68;71.74;100073.59;5065441;28;20127;-75
2021/05/23 02:11:07;;;;;;;0.85;0.20;;;;;;;8.65;71.70;100081.53;5064193;28;20040;-74
2021/05/23 02:13:37;;;;;;;1.00;0.30;;;;;;;8.59;72.42;100083.28;5063089;28;20036;-74
2021/05/23 02:16:04;;;;;;;1.33;0.30;;;;;;;8.58;71.96;100089.44;5066110;28;20039;-75
2021/05/23 02:18:33;;;;;;;2.63;0.40;;;;;;;8.52;72.61;100087.72;5063267;28;20029;-75
2021/05/23 02:20:59;;;;;;;0.88;0.30;;;;;;;8.51;73.17;100093.84;5064012;28;20087;-75
2021/05/23 02:23:24;;;;;;;1.60;0.30;;;;;;;8.56;71.86;100089.44;5064851;28;20579;-75
2021/05/23 02:25:51;;;;;;;1.80;0.50;;;;;;;8.58;71.48;100087.69;5061444;28;20044;-74
2021/05/23 02:28:18;;;;;;;1.55;0.38;;;;;;;8.59;71.66;100080.66;5062400;28;20143;-74
2021/05/23 02:30:50;;;;;;;3.95;0.50;;;;;;;8.55;72.20;100085.94;5064986;28;20043;-74
2021/05/23 02:33:17;;;;;;;0.98;0.50;;;;;;;8.51;71.95;100078.97;5064443;28;20079;-74
2021/05/23 02:35:48;;;;;;;1.30;0.30;;;;;;;8.53;72.57;100085.06;5063012;28;20512;-75
2021/05/23 02:38:14;;;;;;;1.77;0.52;;;;;;;8.51;72.44;100085.97;5065635;28;20455;-73
2021/05/23 02:40:41;;;;;;;3.65;0.40;;;;;;;8.49;72.12;100078.09;5062542;28;20041;-74
2021/05/23 02:43:08;;;;;;;2.08;0.50;;;;;;;8.44;73.37;100082.50;5064008;28;20037;-74
2021/05/23 02:45:37;;;;;;;2.50;0.50;;;;;;;8.43;72.57;100080.75;5062946;28;20036;-74
2021/05/23 02:48:06;;;;;;;2.25;0.57;;;;;;;8.41;72.62;100079.91;5065406;28;20064;-74
2021/05/23 02:50:38;;;;;;;0.57;0.28;;;;;;;8.38;72.33;100084.25;5063097;28;20051;-74
2021/05/23 02:53:08;;;;;;;1.73;0.40;;;;;;;8.32;72.33;100082.50;5061388;28;20549;-73
2021/05/23 02:55:38;;;;;;;2.72;0.70;;;;;;;8.27;72.88;100079.03;5065271;28;20479;-74
2021/05/23 02:58:06;;;;;;;1.58;0.70;;;;;;;8.19;73.61;100086.94;5062838;28;20040;-73
2021/05/23 03:00:31;;;;;;;2.63;0.50;;;;;;;8.16;73.36;100086.97;5063044;28;20517;-74
2021/05/23 03:02:56;;;;;;;1.80;0.52;;;;;;;8.14;73.75;100091.34;5063998;28;20036;-74
2021/05/23 03:05:23;;;;;;;1.33;0.30;;;;;;;8.14;73.21;100075.56;5062170;28;20031;-74
2021/05/23 03:07:51;;;;;;;0.70;0.30;;;;;;;8.14;73.35;100088.72;5065017;28;20090;-74
2021/05/23 03:10:23;;;;;;;1.10;0.40;;;;;;;8.12;73.62;100100.97;5062363;28;20049;-74
2021/05/23 03:12:49;;;;;;;3.70;0.50;;;;;;;8.10;73.17;100110.66;5062516;28;20029;-75
2021/05/23 03:15:17;;;;;;;2.47;0.45;;;;;;;8.09;73.78;100122.03;5064615;28;20059;-75
2021/05/23 03:17:42;;;;;;;2.08;0.50;;;;;;;8.12;73.78;100116.75;5060163;28;20458;-74
2021/05/23 03:20:10;;;;;;;2.25;0.52;;;;;;;8.19;73.62;100115.84;5063540;28;20071;-74
2021/05/23 03:22:36;;;;;;;2.03;0.55;;;;;;;8.21;73.10;100118.50;5066412;28;20107;-75
2021/05/23 03:25:03;;;;;;;1.58;0.50;;;;;;;8.26;72.60;100109.72;5065268;28;20116;-75
2021/05/23 03:27:29;;;;;;;0.77;0.40;;;;;;;8.32;72.94;100108.81;5064808;28;20504;-74
2021/05/23 03:29:54;;;;;;;1.70;0.55;;;;;;;8.40;72.98;100122.84;5073513;22;20068;-75
2021/05/23 03:32:19;;;;;;;1.52;0.35;;;;;;;8.53;72.33;100123.66;5041850;28;20108;-75
2021/05/23 03:34:45;;;;;;;2.63;0.35;;;;;;;8.70;72.11;100115.72;5042838;28;20107;-75
2021/05/23 03:37:10;;;;;;;1.27;0.30;;;;;;;8.87;72.15;100126.13;5044520;28;20037;-75
2021/05/23 03:39:35;;;;;;;1.50;0.70;;;;;;;8.97;71.17;100112.03;5044327;28;20040;-75
2021/05/23 03:42:01;;;;;;;4.10;0.45;;;;;;;9.10;71.03;100112.84;5042278;28;20041;-75
2021/05/23 03:44:26;;;;;;;1.17;0.52;;;;;;;9.24;71.24;100121.50;5042152;28;20056;-75
2021/05/23 03:46:51;;;;;;;1.98;0.40;;;;;;;9.41;71.08;100122.25;5041343;28;20109;-75
2021/05/23 03:49:17;;;;;;;2.85;0.45;;;;;;;9.55;70.62;100121.25;5040716;28;20056;-75
2021/05/23 03:51:45;;;;;;;2.63;0.52;;;;;;;9.63;69.82;100122.06;5042609;28;20026;-75
2021/05/23 03:54:10;;;;;;;1.15;0.40;;;;;;;9.68;70.05;100124.66;5041121;28;20437;-75
2021/05/23 03:56:35;;;;;;;0.30;0.20;;;;;;;9.71;69.71;100114.09;5041546;28;20037;-75
2021/05/23 03:59:01;;;;;;;1.67;0.50;;;;;;;9.73;69.85;100117.59;5040907;28;20506;-75
2021/05/23 04:01:26;;;;;;;1.60;0.50;;;;;;;9.76;69.71;100133.38;5040911;28;20060;-76
2021/05/23 04:03:58;;;;;;;2.38;0.50;;;;;;;9.84;69.17;100129.75;5043842;28;20531;-76
2021/05/23 04:06:23;;;;;;;1.90;0.52;;;;;;;9.98;68.91;100139.28;5042853;28;20504;-75
2021/05/23 04:08:48;;;;;;;1.42;0.60;;;;;;;10.09;69.03;100146.22;5041076;28;20056;-75
2021/05/23 04:11:17;;;;;;;1.15;0.40;;;;;;;10.24;68.04;100152.22;5036791;28;20038;-75
2021/05/23 04:13:44;;;;;;;3.05;0.55;;;;;;;10.35;68.38;100152.13;5041515;28;20037;-75
2021/05/23 04:16:10;;;;;;;1.13;0.40;;;;;;;10.42;68.14;100148.53;5041055;28;20521;-76
2021/05/23 04:18:35;;;;;;;1.20;0.30;;;;;;;10.41;67.79;100160.00;5043475;28;20033;-76
2021/05/23 04:21:00;;;;;;;0.85;0.22;;;;;;;10.43;67.66;100160.84;5041910;28;20040;-76
2021/05/23 04:23:26;;;;;;;2.10;0.30;;;;;;;10.35;67.54;100162.66;5041299;28;20057;-76
2021/05/23 04:25:51;;;;;;;3.00;0.50;;;;;;;10.27;68.25;100170.63;5043442;28;20084;-76
2021/05/23 04:28:17;;;;;;;2.33;0.47;;;;;;;10.25;67.68;100170.66;5041393;28;20060;-76
2021/05/23 04:30:43;;;;;;;2.88;0.65;;;;;;;10.24;67.79;100183.84;5033832;28;20438;-76
2021/05/23 04:33:09;;;;;;;0.85;0.30;;;;;;;10.20;68.43;100188.31;5038553;28;20044;-76
2021/05/23 04:35:34;;;;;;;1.90;0.50;;;;;;;10.21;67.78;100181.25;5041545;28;20034;-75
2021/05/23 04:38:00;;;;;;;2.90;0.73;;;;;;;10.22;68.03;100185.66;5041712;28;20123;-76
2021/05/23 04:40:27;;;;;;;3.78;0.63;;;;;;;10.19;67.97;100183.94;5039747;28;20113;-76
2021/05/23 04:42:52;;;;;;;3.13;0.80;;;;;;;10.17;68.10;100188.34;5042977;28;20399;-76
2021/05/23 04:45:17;;;;;;;1.38;0.70;;;;;;;10.16;67.83;100190.97;5041461;28;20041;-76
2021/05/23 04:47:43;;;;;;;4.78;0.80;;;;;;;10.21;67.93;100199.72;5040898;28;20132;-76
2021/05/23 04:50:09;;;;;;;2.20;0.70;;;;;;;10.27;68.09;100208.50;5042858;28;20044;-76
2021/05/23 04:52:35;;;;;;;1.50;0.63;;;;;;;10.34;68.65;100209.28;5040570;28;20073;-78
2021/05/23 04:55:03;;;;;;;2.08;0.70;;;;;;;10.28;68.03;100201.44;5041139;28;20045;-77
2021/05/23 04:57:28;;;;;;;2.83;0.63;;;;;;;10.31;68.38;100214.59;5042884;28;20116;-76
2021/05/23 04:59:53;;;;;;;2.13;0.73;;;;;;;10.31;68.15;100211.97;5040450;28;20127;-75
2021/05/23 05:02:19;;;;;;;3.53;0.80;;;;;;;10.33;68.38;100215.47;5041017;28;20036;-75
2021/05/23 05:04:45;;;;;;;3.67;1.15;;;;;;;10.25;67.73;100212.00;5042629;28;20468;-75
2021/05/23 05:07:10;;;;;;;3.05;0.63;;;;;;;10.23;68.67;100222.56;5039984;28;20035;-76
2021/05/23 05:09:36;;;;;;;3.33;0.70;;;;;;;10.16;68.95;100227.91;5041442;28;20045;-76
2021/05/23 05:12:01;;;;;;;3.00;0.90;;;;;;;10.18;68.61;100226.13;5041739;28;20036;-76
2021/05/23 05:14:26;;;;;;;3.00;0.98;;;;;;;10.30;68.31;100229.56;5039838;28;20037;-76
2021/05/23 05:16:52;;;;;;;4.55;0.90;;;;;;;10.48;68.23;100233.78;5041965;28;20045;-76
2021/05/23 05:19:17;;;;;;;4.72;1.40;;;;;;;10.69;67.65;100235.31;5041165;28;20043;-76
2021/05/23 05:21:43;;;;;;;2.20;0.80;;;;;;;10.92;67.94;100232.38;5039559;28;20128;-76
2021/05/23 05:24:09;;;;;;;2.47;0.90;;;;;;;11.17;67.51;100232.06;5049488;28;20033;-76
2021/05/23 05:26:35;;;;;;;2.67;0.77;;;;;;;11.46;66.84;100233.44;5041125;28;20491;-75
2021/05/23 05:29:00;;;;;;;4.03;1.20;;;;;;;11.64;66.08;100219.94;5040453;28;20159;-76
2021/05/23 05:31:25;;;;;;;4.35;0.95;;;;;;;11.82;65.64;100222.31;5041943;28;20068;-76
2021/05/23 05:33:51;;;;;;;4.78;1.00;;;;;;;11.94;65.03;100225.66;5040546;28;20526;-77
2021/05/23 05:36:17;;;;;;;4.75;1.20;;;;;;;12.01;65.00;100228.19;5040715;28;20407;-76
2021/05/23 05:38:42;;;;;;;4.65;1.17;;;;;;;12.25;63.63;100237.47;5042296;28;20041;-76
2021/05/23 05:41:07;;;;;;;5.35;1.15;;;;;;;12.42;62.52;100233.66;5039545;28;20037;-76
2021/05/23 05:43:33;;;;;;;4.03;1.02;;;;;;;12.70;61.60;100242.78;5040631;28;20029;-76
2021/05/23 05:45:58;;;;;;;3.72;1.20;;;;;;;12.83;59.94;100240.78;5040463;28;20493;-76
2021/05/23 05:48:24;;;;;;;4.07;1.33;;;;;;;12.92;58.90;100235.31;5049306;28;20033;-76
2021/05/23 05:50:49;;;;;;;3.15;0.98;;;;;;;13.16;58.79;100241.00;5043195;28;20073;-76
2021/05/23 05:53:14;;;;;;;4.57;1.50;;;;;;;13.24;57.41;100243.50;5038866;28;20116;-76
2021/05/23 05:55:40;;;;;;;4.97;1.20;;;;;;;13.20;57.02;100236.50;5038615;28;20033;-75
2021/05/23 05:58:05;;;;;;;5.95;1.42;;;;;;;13.00;57.08;100240.47;5033871;28;20112;-75
2021/05/23 06:00:30;;;;;;;3.10;0.98;;;;;;;12.91;57.39;100233.56;5040105;28;20053;-76
2021/05/23 06:02:56;;;;;;;3.25;1.10;;;;;;;12.79;58.10;100233.81;5037649;28;20021;-75
2021/05/23 06:05:21;;;;;;;4.50;1.38;;;;;;;12.72;58.36;100246.28;5039097;28;20094;-75
2021/05/23 06:07:47;;;;;;;4.40;1.00;;;;;;;12.69;58.69;100251.66;5041646;28;20710;-76
2021/05/23 06:10:14;;;;;;;5.38;1.13;;;;;;;12.81;58.27;100241.72;5040855;28;20040;-75
2021/05/23 06:12:39;;;;;;;3.35;1.10;;;;;;;12.90;58.31;100236.25;5038124;28;20116;-76
2021/05/23 06:15:06;;;;;;;4.95;1.00;;;;;;;13.11;57.90;100241.09;5041514;28;20116;-76
2021/05/23 06:17:32;;;;;;;2.38;0.80;;;;;;;13.08;56.42;100243.81;5040860;28;20048;-76
2021/05/23 06:19:57;;;;;;;4.95;1.10;;;;;;;13.07;57.97;100244.72;5039244;28;20041;-76
2021/05/23 06:22:23;;;;;;;4.85;1.08;;;;;;;13.14;57.92;100240.16;5041681;28;20033;-75
2021/05/23 06:24:48;;;;;;;6.05;1.00;;;;;;;13.23;57.61;100239.97;5040298;28;20040;-76
2021/05/23 06:27:14;;;;;;;3.20;0.80;;;;;;;13.32;57.45;100247.75;5040329;28;20072;-75
2021/05/23 06:29:39;;;;;;;3.92;0.98;;;;;;;13.35;57.17;100250.31;5039963;28;20059;-75
2021/05/23 06:32:06;;;;;;;3.50;0.80;;;;;;;13.42;57.16;100251.06;5041875;28;20040;-75
2021/05/23 06:34:32;;;;;;;4.10;0.90;;;;;;;13.55;57.72;100262.28;5041062;28;20453;-76
2021/05/23 06:36:58;;;;;;;3.47;0.90;;;;;;;13.61;57.02;100258.59;5041384;28;20041;-75
2021/05/23 06:39:23;;;;;;;2.63;0.90;;;;;;;13.69;55.79;100251.34;5045178;28;20764;-74
2021/05/23 06:41:48;;;;;;;3.63;1.17;;;;;;;13.59;55.05;100259.50;5042905;28;20052;-75
2021/05/23 06:44:15;;;;;;;4.07;0.95;;;;;;;13.68;55.73;100253.13;5044942;28;20044;-75
2021/05/23 06:46:41;;;;;;;3.72;1.00;;;;;;;13.71;55.16;100260.16;5042633;28;20041;-75
2021/05/23 06:49:06;;;;;;;4.55;0.80;;;;;;;13.78;54.74;100264.38;5044282;28;20517;-75
2021/05/23 06:51:32;;;;;;;3.42;0.70;;;;;;;13.72;54.44;100291.91;5044253;28;20025;-75
2021/05/23 06:53:57;;;;;;;4.68;0.95;;;;;;;13.80;54.00;100263.44;5042417;28;20512;-75
2021/05/23 06:56:22;;;;;;;3.63;1.08;;;;;;;13.83;54.32;100257.19;5044761;28;20403;-75
2021/05/23 06:58:48;;;;;;;5.20;1.20;;;;;;;14.08;54.08;100261.91;5043787;28;20467;-74
2021/05/23 07:01:13;;;;;;;6.53;0.77;;;;;;;14.19;54.30;100262.50;5042214;28;20116;-74
2021/05/23 07:03:38;;;;;;;5.65;0.80;;;;;;;14.14;53.12;100261.75;5044956;28;20179;-75
2021/05/23 07:06:04;;;;;;;2.97;0.90;;;;;;;14.27;54.13;100263.19;5043225;28;20714;-75
2021/05/23 07:08:29;;;;;;;4.35;0.85;;;;;;;14.23;53.19;100262.41;5042958;28;20044;-75
2021/05/23 07:10:55;;;;;;;4.18;0.90;;;;;;;14.24;54.28;100255.28;5044806;28;20029;-75
2021/05/23 07:13:22;;;;;;;3.25;0.85;;;;;;;14.27;52.96;100257.88;5042313;28;20160;-74
2021/05/23 07:15:48;;;;;;;5.38;1.13;;;;;;;14.24;52.36;100252.66;5043052;28;20045;-74
2021/05/23 07:18:13;;;;;;;4.43;0.88;;;;;;;14.30;53.92;100257.78;5044786;28;20240;-75
2021/05/23 07:20:39;;;;;;;2.90;0.73;;;;;;;14.29;52.81;100248.09;5041784;28;20435;-74
2021/05/23 07:23:04;;;;;;;3.13;0.95;;;;;;;14.33;52.33;100263.03;5043240;28;20510;-75
2021/05/23 07:25:29;;;;;;;4.57;1.17;;;;;;;14.33;52.66;100256.84;5039217;28;20030;-75
2021/05/23 07:27:55;;;;;;;5.65;0.95;;;;;;;14.37;53.13;100261.16;5040339;28;20048;-75
2021/05/23 07:30:20;;;;;;;2.83;0.80;;;;;;;14.43;52.97;100264.50;5043193;28;20044;-75
2021/05/23 07:32:46;;;;;;;3.78;1.15;;;;;;;14.56;52.00;100264.22;5043246;28;20167;-74
2021/05/23 07:35:11;;;;;;;1.92;0.50;;;;;;;14.54;52.30;100264.28;5041647;28;20057;-75
2021/05/23 07:37:37;;;;;;;2.75;0.80;;;;;;;14.51;51.44;100268.75;5044470;28;20029;-75
2021/05/23 07:40:04;;;;;;;4.75;0.85;;;;;;;14.38;52.21;100266.44;5039430;28;20052;-75
2021/05/23 07:42:29;;;;;;;3.58;0.93;;;;;;;14.46;52.70;100269.78;5040007;28;20030;-75
2021/05/23 07:44:55;;;;;;;2.22;0.63;;;;;;;14.58;52.86;100275.69;5044312;28;20044;-75
2021/05/23 07:47:20;;;;;;;2.40;0.65;;;;;;;14.71;52.52;100282.41;5037039;28;20033;-75
2021/05/23 07:49:45;;;;;;;3.33;0.90;;;;;;;14.89;52.17;100289.88;5041503;28;20040;-74
2021/05/23 07:52:12;;;;;;;2.28;0.60;;;;;;;14.98;51.82;100296.72;5040631;28;20036;-75
2021/05/23 07:54:40;;;;;;;1.75;0.43;;;;;;;14.83;51.06;100286.53;5041726;28;20029;-75
2021/05/23 07:57:06;;;;;;;2.35;0.55;;;;;;;14.81;50.84;100267.09;5042097;28;20025;-74
2021/05/23 07:59:32;;;;;;;2.53;0.68;;;;;;;14.89;51.12;100295.19;5044013;28;20040;-74
2021/05/23 08:01:58;;;;;;;3.55;0.60;;;;;;;15.01;50.82;100287.78;5041401;28;20057;-74
2021/05/23 08:04:23;;;;;;;5.57;0.90;;;;;;;15.04;50.68;100298.34;5035166;28;20087;-74
2021/05/23 08:06:49;;;;;;;2.03;0.65;;;;;;;15.13;51.12;100295.41;5043546;28;20035;-75
2021/05/23 08:09:14;;;;;;;2.25;0.60;;;;;;;15.29;49.11;100294.06;5036872;28;20098;-74
2021/05/23 08:11:40;;;;;;;2.90;0.50;;;;;;;15.52;50.48;100300.50;5041722;28;20025;-74
2021/05/23 08:14:07;;;;;;;2.83;0.60;;;;;;;15.67;49.07;100293.84;5040103;28;20045;-74
2021/05/23 08:16:32;;;;;;;3.92;0.50;;;;;;;15.68;48.69;100303.56;5043701;28;20049;-75
2021/05/23 08:18:57;;;;;;;2.08;0.80;;;;;;;15.71;49.12;100299.03;5041503;28;20037;-74
2021/05/23 08:21:23;;;;;;;5.10;0.70;;;;;;;15.82;49.43;100280.06;5041444;28;20060;-75
2021/05/23 08:23:48;;;;;;;4.65;0.70;;;;;;;15.88;49.97;100305.63;5043478;28;20052;-74
2021/05/23 08:26:13;;;;;;;2.70;0.80;;;;;;;15.97;48.63;100292.88;5040961;28;20204;-75
2021/05/23 08:28:39;;;;;;;2.20;0.60;;;;;;;15.90;49.21;100288.69;5042180;28;20400;-74
2021/05/23 08:31:04;;;;;;;3.75;1.10;;;;;;;15.97;49.21;100284.91;5042738;28;20041;-74
2021/05/23 08:33:31;;;;;;;2.95;0.90;;;;;;;16.28;49.12;100296.34;5040360;28;20057;-75
2021/05/23 08:35:56;;;;;;;4.63;0.82;;;;;;;16.39;46.62;100294.19;5037001;28;20029;-74
2021/05/23 08:38:22;;;;;;;3.13;0.70;;;;;;;16.48;46.13;100296.56;5040680;28;20033;-75
2021/05/23 08:40:48;;;;;;;2.22;0.50;;;;;;;16.58;46.05;100297.09;5042750;28;20090;-74
2021/05/23 08:43:15;;;;;;;2.03;0.70;;;;;;;16.51;45.69;100287.59;5048113;28;20128;-75
2021/05/23 08:45:42;;;;;;;3.15;1.00;;;;;;;16.20;46.75;100296.59;5040608;28;20051;-75
2021/05/23 08:48:08;;;;;;;2.47;0.80;;;;;;;16.40;46.39;100299.47;5042642;28;20029;-75
2021/05/23 08:50:33;;;;;;;3.42;0.60;;;;;;;16.70;45.25;100298.47;5039136;28;20400;-75
2021/05/23 08:53:00;;;;;;;2.63;0.70;;;;;;;16.86;45.20;100295.22;5041078;28;20036;-74
2021/05/23 08:55:27;;;;;;;2.67;0.60;;;;;;;16.98;45.45;100293.91;5042708;28;20502;-74
2021/05/23 08:57:54;;;;;;;2.65;0.50;;;;;;;16.78;44.23;100296.44;5040057;28;20061;-75
2021/05/23 09:00:21;;;;;;;3.35;0.60;;;;;;;16.69;45.81;100294.94;5040868;28;20017;-75
2021/05/23 09:02:56;;;;;;;3.15;0.90;;;;;;;16.49;45.69;100292.94;5042385;28;20582;-75
2021/05/23 09:05:29;;;;;;;5.20;0.52;;;;;;;16.63;46.85;100296.00;5041522;28;20031;-80
2021/05/23 09:07:55;;;;;;;2.53;0.73;;;;;;;16.78;45.27;100299.09;5022437;28;20063;-76
2021/05/23 09:10:26;;;;;;;3.15;0.60;;;;;;;16.90;45.32;100296.00;5041965;28;20045;-76
2021/05/23 09:12:51;;;;;;;3.40;0.88;;;;;;;16.92;45.89;100298.59;5042676;28;20033;-78
2021/05/23 09:15:17;;;;;;;2.60;0.50;;;;;;;16.78;44.99;100302.63;5036094;28;20037;-77
2021/05/23 09:17:43;;;;;;;3.05;0.60;;;;;;;16.78;45.66;100291.97;5034897;28;20117;-78
2021/05/23 09:20:16;;;;;;;1.63;0.60;;;;;;;17.03;44.42;100299.09;5047704;28;20037;-77
2021/05/23 09:22:41;;;;;;;2.90;0.68;;;;;;;17.29;44.46;100303.44;5023125;28;20546;-77
2021/05/23 09:25:09;;;;;;;2.85;0.93;;;;;;;17.33;44.32;100302.41;5034953;28;20037;-77
2021/05/23 09:27:43;;;;;;;2.85;0.70;;;;;;;17.42;43.53;100296.75;5038769;28;20408;-77
2021/05/23 09:30:20;;;;;;;3.22;0.80;;;;;;;17.63;42.59;100316.38;5041741;28;20139;-77
2021/05/23 09:32:46;;;;;;;1.40;0.52;;;;;;;18.01;41.94;100299.81;5050418;23;20103;-78
2021/05/23 09:35:12;;;;;;;2.50;0.60;;;;;;;18.59;42.50;100310.72;5048194;28;20049;-79
2021/05/23 09:37:39;;;;;;;3.17;0.80;;;;;;;18.88;41.44;100295.25;5046915;28;20040;-79
2021/05/23 09:40:19;;;;;;;2.75;0.63;;;;;;;19.00;41.69;100308.97;5049528;28;20090;-79
2021/05/23 09:42:51;;;;;;;3.78;0.80;;;;;;;18.71;40.03;100323.56;5045197;28;20044;-79
2021/05/23 09:45:18;;;;;;;2.97;0.70;;;;;;;18.13;40.86;100323.31;5038292;28;20037;-79
2021/05/23 09:47:50;;;;;;;3.33;1.02;;;;;;;17.82;41.64;100319.22;5036582;28;20088;-79
2021/05/23 09:50:16;;;;;;;2.35;0.60;;;;;;;17.77;41.58;100299.81;5034600;28;20549;-78
2021/05/23 09:52:41;;;;;;;2.78;1.00;;;;;;;18.15;41.20;100316.13;5036954;28;20054;-79
2021/05/23 09:55:07;;;;;;;4.15;1.00;;;;;;;18.33;41.78;100309.16;5054238;28;20510;-79
2021/05/23 09:57:33;;;;;;;4.28;0.88;;;;;;;18.98;42.43;100304.63;5039178;28;20103;-79
2021/05/23 10:00:10;;;;;;;2.85;0.75;;;;;;;19.23;39.88;100313.28;5038126;28;20132;-79
2021/05/23 10:02:55;;;;;;;2.15;0.50;;;;;;;18.93;39.93;100310.16;5025535;28;20034;-79
2021/05/23 10:05:22;;;;;;;6.25;1.25;;;;;;;18.75;38.91;100316.31;5038282;28;20435;-79
2021/05/23 10:07:47;;;;;;;3.38;0.80;;;;;;;18.77;38.74;100327.81;5038223;28;20042;-79
2021/05/23 10:10:14;;;;;;;1.58;0.40;;;;;;;18.50;39.13;100329.84;5037367;28;20120;-79
2021/05/23 10:12:41;;;;;;;2.72;0.68;;;;;;;18.21;40.00;100326.56;5029403;28;20029;-78
2021/05/23 10:15:07;;;;;;;2.15;0.60;;;;;;;17.98;41.08;100323.97;5038112;28;20087;-79
2021/05/23 10:17:36;;;;;;;3.47;0.50;;;;;;;18.15;41.97;100330.34;5032918;28;20045;-79
2021/05/23 10:20:05;;;;;;;2.47;0.63;;;;;;;18.36;41.26;100341.94;5041841;28;20087;-79
2021/05/23 10:22:36;;;;;;;3.42;0.77;;;;;;;18.10;41.02;100344.81;5050373;28;20056;-79
2021/05/23 10:25:08;;;;;;;1.70;0.60;;;;;;;17.94;40.38;100345.44;5041551;28;20132;-78
2021/05/23 10:27:37;;;;;;;2.42;0.60;;;;;;;18.20;39.92;100338.19;5033873;28;20072;-79
2021/05/23 10:30:05;;;;;;;2.28;0.70;;;;;;;18.61;39.47;100352.50;5041596;28;20509;-79
2021/05/23 10:32:34;;;;;;;1.52;0.50;;;;;;;18.65;39.93;100341.66;5033683;28;20025;-79
2021/05/23 10:35:18;;;;;;;3.58;0.60;;;;;;;18.75;38.84;100367.97;5020803;28;20607;-78
2021/05/23 10:37:46;;;;;;;5.93;1.05;;;;;;;18.76;42.17;100374.22;5037988;28;20029;-79
2021/05/23 10:40:26;;;;;;;2.35;0.60;;;;;;;17.75;45.81;100374.59;5039218;28;20030;-79
2021/05/23 10:42:54;;;;;;;1.50;0.60;;;;;;;16.44;51.05;100385.47;5034073;28;20113;-79
2021/05/23 10:45:31;;;;;;;2.35;0.57;;;;;;;15.61;52.60;100382.66;5040750;28;20025;-78
2021/05/23 10:47:58;;;;;;;1.73;0.57;;;;;;;15.71;55.54;100389.50;5039313;28;20049;-78
2021/05/23 10:50:35;;;;;;;2.13;0.60;;;;;;;15.95;52.55;100402.97;5042145;28;20096;-78
2021/05/23 10:53:00;;;;;;;3.15;0.57;;;;;;;16.07;49.32;100383.09;5036028;28;20039;-78
2021/05/23 10:55:26;;;;;;;1.02;0.40;;;;;;;16.15;51.20;100391.72;5040850;28;20044;-78
2021/05/23 10:57:53;;;;;;;1.23;0.50;;;;;;;15.86;53.29;100388.16;5042717;28;20025;-78
2021/05/23 11:00:22;;;;;;;2.75;0.68;;;;;;;15.39;58.01;100400.16;5041216;28;20038;-77
2021/05/23 11:02:50;;;;;;;2.58;0.70;;;;;;;15.51;56.32;100399.78;5040491;28;20049;-78
2021/05/23 11:05:16;;;;;;;2.78;0.60;;;;;;;15.99;56.31;100399.31;5042773;28;20025;-78
2021/05/23 11:07:59;;;;;;;2.90;0.60;;;;;;;15.87;54.26;100403.19;5051110;28;20037;-78
2021/05/23 11:10:30;;;;;;;2.92;0.57;;;;;;;15.62;53.64;100399.50;5038137;28;20033;-78
2021/05/23 11:12:59;;;;;;;4.07;0.35;;;;;;;15.29;50.83;100410.16;5043255;28;20041;-78
2021/05/23 11:15:25;;;;;;;2.13;0.40;;;;;;;14.85;57.17;100399.81;5056685;28;20124;-78
2021/05/23 11:17:53;;;;;;;0.77;0.25;;;;;;;14.37;56.76;100407.19;5039236;28;20103;-78
2021/05/23 11:20:22;;;;;;;1.15;0.43;;;;;;;14.21;59.76;100404.00;5040085;28;20124;-78
2021/05/23 11:22:58;;;;;;;3.55;0.60;;;;;;;14.36;59.14;100408.97;5039677;28;20050;-78
2021/05/23 11:25:24;;;;;;;1.98;0.40;;;;;;;14.87;54.67;100402.44;5032307;28;20034;-78